Portada
METAR-TAF:

METAR-TAF

Aeroports :

Sitiawan, Malàisia

latitud: 04-13N, longitud: 100-42E, altitud: 7 m

Observació

L'informe es va fer fa 36 minuts, a les 21:00 UTC
Vent 2 kt amb direcció variable
Temperatura 24°C
Humitat 100%
Pressió 1009 hPa
Visibilitat: 6000 m
Escasses núvols a una alçada de 600 ft
Núvols disperses a una alçada de 3000 ft

METAR: WMBA 112100Z VRB02KT 6000 FEW006 SCT030 24/24 Q1009

Hora: 05:36 (21:36 UTC)


TAF: manca

Observacions i pronòstics meteorològics de més de 4000 aeroports (METAR i TAF).

Les estacions disponibles són els punts grocs i vermells al mapa.

Posi el ratolí al punt desitjat per veure el nom de l'estació.

Feu clic per veure les observacions i els pronòstics meteorològics.

Per canviar el mapa: feu clic els botons verds amb una creu de color negre per apropar; al botó verd amb un guió per allunyar la imatge; o en les fletxes verdes per a mapes adjacents.


METAR-TAF: